createdAt,value
2023-09-18T00:01:22.108Z,7.47
2023-09-18T00:03:49.498Z,7.93
2023-09-18T00:06:16.787Z,7.15
2023-09-18T00:08:44.014Z,7.10
2023-09-18T00:11:12.662Z,7.57
2023-09-18T00:13:39.991Z,7.60
2023-09-18T00:16:07.254Z,7.50
2023-09-18T00:18:34.871Z,7.70
2023-09-18T00:21:02.220Z,7.72
2023-09-18T00:23:29.544Z,7.47
2023-09-18T00:25:56.786Z,7.85
2023-09-18T00:28:23.989Z,8.23
2023-09-18T00:30:51.565Z,7.38
2023-09-18T00:33:20.766Z,8.38
2023-09-18T00:35:52.901Z,7.68
2023-09-18T00:38:20.792Z,8.20
2023-09-18T00:40:48.485Z,7.35
2023-09-18T00:43:15.796Z,7.95
2023-09-18T00:45:46.609Z,8.00
2023-09-18T00:48:17.443Z,7.80
2023-09-18T00:50:46.795Z,8.07
2023-09-18T00:53:19.685Z,7.90
2023-09-18T00:55:47.740Z,7.93
2023-09-18T00:58:15.042Z,8.25
2023-09-18T01:00:42.385Z,7.78
2023-09-18T01:03:11.033Z,7.65
2023-09-18T01:05:38.431Z,8.40
2023-09-18T01:08:06.310Z,8.30
2023-09-18T01:10:58.690Z,8.25
2023-09-18T01:13:38.084Z,8.00
2023-09-18T01:16:28.427Z,8.20
2023-09-18T01:18:55.793Z,7.85
2023-09-18T01:21:23.505Z,8.18
2023-09-18T01:23:50.775Z,7.85
2023-09-18T01:26:18.198Z,8.65
2023-09-18T01:28:45.503Z,8.40
2023-09-18T01:31:12.772Z,8.20
2023-09-18T01:33:40.695Z,8.02
2023-09-18T01:36:09.736Z,8.30
2023-09-18T01:38:38.619Z,8.02
2023-09-18T01:41:05.892Z,8.70
2023-09-18T01:43:33.220Z,8.25
2023-09-18T01:46:00.475Z,8.20
2023-09-18T01:48:27.680Z,7.90
2023-09-18T01:50:54.911Z,7.72
2023-09-18T01:53:22.173Z,8.32
2023-09-18T01:55:49.388Z,7.70
2023-09-18T01:58:16.922Z,8.65
2023-09-18T02:00:44.718Z,8.60
2023-09-18T02:03:22.115Z,8.10
2023-09-18T02:05:59.949Z,8.30
2023-09-18T02:08:27.520Z,8.25
2023-09-18T02:10:54.781Z,8.10
2023-09-18T02:13:22.183Z,7.47
2023-09-18T02:15:49.359Z,8.38
2023-09-18T02:18:17.098Z,8.18
2023-09-18T02:20:48.476Z,8.32
2023-09-18T02:23:17.134Z,8.23
2023-09-18T02:25:44.528Z,8.18
2023-09-18T02:28:11.804Z,8.77
2023-09-18T02:30:38.987Z,8.68
2023-09-18T02:33:06.367Z,8.73
2023-09-18T02:35:33.682Z,8.68
2023-09-18T02:38:03.312Z,8.35
2023-09-18T02:40:30.534Z,8.57
2023-09-18T02:42:57.713Z,8.52
2023-09-18T02:45:24.920Z,8.40
2023-09-18T02:47:52.242Z,8.95
2023-09-18T02:50:19.518Z,8.90
2023-09-18T02:52:46.697Z,8.45
2023-09-18T02:55:14.568Z,8.95
2023-09-18T02:57:41.882Z,8.65
2023-09-18T03:00:10.513Z,8.82
2023-09-18T03:02:37.819Z,8.60
2023-09-18T03:05:05.894Z,9.00
2023-09-18T03:07:33.193Z,9.18
2023-09-18T03:10:00.461Z,8.20
2023-09-18T03:12:27.748Z,8.50
2023-09-18T03:14:55.044Z,8.65
2023-09-18T03:17:22.406Z,9.48
2023-09-18T03:19:50.373Z,8.85
2023-09-18T03:22:17.773Z,8.23
2023-09-18T03:24:44.988Z,9.00
2023-09-18T03:27:12.182Z,8.70
2023-09-18T03:29:39.351Z,9.10
2023-09-18T03:32:06.845Z,8.63
2023-09-18T03:34:34.385Z,9.43
2023-09-18T03:37:01.674Z,8.50
2023-09-18T03:39:29.146Z,9.25
2023-09-18T03:41:56.342Z,9.40
2023-09-18T03:44:24.031Z,8.73
2023-09-18T03:46:51.269Z,9.23
2023-09-18T03:49:18.491Z,8.98
2023-09-18T03:51:45.756Z,8.75
2023-09-18T03:54:13.085Z,9.80
2023-09-18T03:56:40.351Z,9.68
2023-09-18T03:59:07.576Z,9.30
2023-09-18T04:01:34.790Z,9.18
2023-09-18T04:04:05.549Z,9.00
2023-09-18T04:06:47.237Z,9.57
2023-09-18T04:09:16.348Z,10.25
2023-09-18T04:11:43.619Z,9.10
2023-09-18T04:14:10.892Z,9.68
2023-09-18T04:16:40.946Z,9.25
2023-09-18T04:19:09.373Z,9.48
2023-09-18T04:21:36.962Z,9.77
2023-09-18T04:24:04.641Z,9.88
2023-09-18T04:26:32.223Z,9.57
2023-09-18T04:29:02.959Z,10.15
2023-09-18T04:31:30.285Z,9.45
2023-09-18T04:33:57.618Z,9.30
2023-09-18T04:36:25.885Z,9.20
2023-09-18T04:38:53.473Z,9.02
2023-09-18T04:41:20.964Z,8.93
2023-09-18T04:43:48.283Z,9.02
2023-09-18T04:46:16.738Z,8.70
2023-09-18T04:48:44.055Z,8.63
2023-09-18T04:51:11.634Z,9.15
2023-09-18T04:53:39.020Z,9.20
2023-09-18T04:56:06.258Z,8.82
2023-09-18T04:58:33.555Z,8.77
2023-09-18T05:01:05.952Z,8.65
2023-09-18T05:03:35.952Z,9.70
2023-09-18T05:06:05.225Z,8.88
2023-09-18T05:08:32.725Z,9.18
2023-09-18T05:11:00.555Z,8.90
2023-09-18T05:13:27.780Z,9.60
2023-09-18T05:15:55.069Z,9.50
2023-09-18T05:18:22.820Z,8.98
2023-09-18T05:20:50.135Z,8.82
2023-09-18T05:23:19.166Z,8.88
2023-09-18T05:25:46.576Z,9.13
2023-09-18T05:28:13.782Z,9.55
2023-09-18T05:30:41.867Z,9.43
2023-09-18T05:33:10.165Z,8.90
2023-09-18T05:35:45.538Z,8.63
2023-09-18T05:38:15.141Z,8.82
2023-09-18T05:40:43.038Z,8.40
2023-09-18T05:43:11.133Z,8.13
2023-09-18T05:45:39.186Z,8.27
2023-09-18T05:48:06.790Z,8.38
2023-09-18T05:50:37.102Z,8.50
2023-09-18T05:53:05.319Z,8.00
2023-09-18T05:55:34.966Z,8.48
2023-09-18T05:58:05.272Z,8.30
2023-09-18T06:00:32.735Z,7.63
2023-09-18T06:03:00.954Z,7.72
2023-09-18T06:05:28.465Z,7.82
2023-09-18T06:07:55.713Z,7.63
2023-09-18T06:10:22.940Z,8.30
2023-09-18T06:12:50.136Z,7.70
2023-09-18T06:15:17.367Z,8.13
2023-09-18T06:17:44.982Z,7.88
2023-09-18T06:20:17.108Z,8.55
2023-09-18T06:22:44.832Z,8.27
2023-09-18T06:25:12.208Z,7.20
2023-09-18T06:27:39.824Z,7.20
2023-09-18T06:30:08.138Z,7.20
2023-09-18T06:32:35.700Z,6.88
2023-09-18T06:35:03.116Z,7.25
2023-09-18T06:37:30.425Z,7.45
2023-09-18T06:40:00.440Z,8.07
2023-09-18T06:42:27.794Z,7.35
2023-09-18T06:44:55.575Z,7.15
2023-09-18T06:47:25.247Z,8.23
2023-09-18T06:49:52.880Z,7.88
2023-09-18T06:52:20.260Z,7.25
2023-09-18T06:54:47.440Z,7.07
2023-09-18T06:57:14.693Z,6.88
2023-09-18T06:59:41.994Z,6.63
2023-09-18T07:02:09.310Z,6.88
2023-09-18T07:04:36.590Z,6.97
2023-09-18T07:07:04.245Z,6.85
2023-09-18T07:09:31.756Z,6.90
2023-09-18T07:11:59.122Z,6.80
2023-09-18T07:14:26.363Z,6.65
2023-09-18T07:16:53.608Z,6.35
2023-09-18T07:19:20.853Z,5.75
2023-09-18T07:21:48.096Z,5.93
2023-09-18T07:24:18.154Z,5.88
2023-09-18T07:26:47.989Z,6.68
2023-09-18T07:29:16.366Z,6.38
2023-09-18T07:31:45.003Z,6.07
2023-09-18T07:34:14.522Z,6.28
2023-09-18T07:36:41.925Z,6.55
2023-09-18T07:39:09.316Z,6.15
2023-09-18T07:41:36.677Z,6.28
2023-09-18T07:44:04.600Z,6.20
2023-09-18T07:46:31.802Z,6.10
2023-09-18T07:48:58.976Z,6.30
2023-09-18T07:51:26.148Z,6.60
2023-09-18T07:53:53.391Z,5.85
2023-09-18T07:56:20.607Z,5.65
2023-09-18T07:58:48.107Z,5.65
2023-09-18T08:01:17.580Z,5.47
2023-09-18T08:03:45.023Z,5.70
2023-09-18T08:06:12.878Z,5.93
2023-09-18T08:08:40.754Z,5.80
2023-09-18T08:11:12.086Z,6.20
2023-09-18T08:13:39.283Z,5.93
2023-09-18T08:16:08.386Z,5.70
2023-09-18T08:18:36.660Z,6.05
2023-09-18T08:21:05.718Z,5.60
2023-09-18T08:23:33.705Z,5.43
2023-09-18T08:26:01.463Z,5.43
2023-09-18T08:28:28.818Z,6.57
2023-09-18T08:30:56.222Z,5.85
2023-09-18T08:33:23.485Z,6.00
2023-09-18T08:35:50.943Z,5.38
2023-09-18T08:38:18.342Z,5.40
2023-09-18T08:40:45.764Z,5.70
2023-09-18T08:43:17.375Z,5.50
2023-09-18T08:45:53.465Z,7.50
2023-09-18T08:48:22.729Z,5.63
2023-09-18T08:50:52.507Z,5.57
2023-09-18T08:53:19.953Z,5.28
2023-09-18T08:55:47.149Z,4.93
2023-09-18T08:58:15.576Z,5.70
2023-09-18T09:00:42.881Z,5.07
2023-09-18T09:03:11.024Z,5.55
2023-09-18T09:05:38.600Z,5.68
2023-09-18T09:08:05.867Z,6.35
2023-09-18T09:10:33.050Z,5.00
2023-09-18T09:13:01.719Z,4.85
2023-09-18T09:15:50.778Z,5.13
2023-09-18T09:18:18.560Z,5.20
2023-09-18T09:21:00.602Z,4.72
2023-09-18T09:23:31.157Z,4.80
2023-09-18T09:26:17.577Z,4.38
2023-09-18T09:28:46.751Z,5.63
2023-09-18T09:31:33.913Z,5.18
2023-09-18T09:34:03.467Z,5.13
2023-09-18T09:36:31.631Z,4.70
2023-09-18T09:39:00.013Z,5.05
2023-09-18T09:41:31.076Z,4.75
2023-09-18T09:43:59.720Z,4.57
2023-09-18T09:46:27.554Z,4.85
2023-09-18T09:49:06.496Z,4.57
2023-09-18T09:51:35.596Z,4.60
2023-09-18T09:54:03.470Z,4.35
2023-09-18T09:56:52.035Z,4.47
2023-09-18T09:59:20.700Z,4.40
2023-09-18T10:01:51.330Z,3.95
2023-09-18T10:04:21.143Z,4.13
2023-09-18T10:07:07.002Z,4.10
2023-09-18T10:09:40.085Z,4.22
2023-09-18T10:12:12.950Z,4.00
2023-09-18T10:14:59.778Z,3.80
2023-09-18T10:17:31.135Z,4.40
2023-09-18T10:20:10.394Z,3.72
2023-09-18T10:22:47.659Z,4.47
2023-09-18T10:25:21.657Z,4.20
2023-09-18T10:27:51.026Z,4.90
2023-09-18T10:30:19.397Z,4.78
2023-09-18T10:32:47.591Z,4.80
2023-09-18T10:35:16.344Z,4.45
2023-09-18T10:37:46.891Z,4.65
2023-09-18T10:40:14.553Z,4.65
2023-09-18T10:42:43.244Z,4.22
2023-09-18T10:45:14.187Z,3.78
2023-09-18T10:47:46.669Z,4.47
2023-09-18T10:52:52.530Z,4.70
2023-09-18T10:55:22.348Z,3.70
2023-09-18T10:57:55.719Z,4.50
2023-09-18T11:00:28.802Z,4.38
2023-09-18T11:03:28.794Z,4.40
2023-09-18T11:06:13.934Z,4.10
2023-09-18T11:08:51.016Z,3.88
2023-09-18T11:11:21.972Z,4.68
2023-09-18T11:13:55.811Z,4.07
2023-09-18T11:16:29.104Z,3.80
2023-09-18T11:18:59.854Z,4.40
2023-09-18T11:21:33.473Z,4.50
2023-09-18T11:24:17.037Z,3.70
2023-09-18T11:26:48.980Z,3.90
2023-09-18T11:29:23.218Z,3.63
2023-09-18T11:31:57.782Z,3.50
2023-09-18T11:34:32.422Z,3.75
2023-09-18T11:36:59.993Z,3.40
2023-09-18T11:39:41.722Z,3.25
2023-09-18T11:42:17.022Z,3.10
2023-09-18T11:44:47.899Z,3.42
2023-09-18T11:47:20.466Z,3.50
2023-09-18T11:49:59.499Z,3.08
2023-09-18T11:52:30.454Z,3.50
2023-09-18T11:55:00.877Z,2.78
2023-09-18T11:57:29.717Z,3.08
2023-09-18T12:00:01.310Z,3.58
2023-09-18T12:02:39.424Z,2.92
2023-09-18T12:05:19.498Z,3.22
2023-09-18T12:07:48.170Z,3.28
2023-09-18T12:10:19.825Z,2.67
2023-09-18T12:12:48.321Z,3.10
2023-09-18T12:15:21.085Z,2.58
2023-09-18T12:17:48.639Z,2.20
2023-09-18T12:20:22.544Z,2.45
2023-09-18T12:22:52.013Z,2.13
2023-09-18T12:25:19.928Z,2.40
2023-09-18T12:27:52.224Z,2.92
2023-09-18T12:30:22.074Z,2.25
2023-09-18T12:32:52.313Z,2.47
2023-09-18T12:35:20.148Z,2.13
2023-09-18T12:37:47.524Z,2.50
2023-09-18T12:40:33.989Z,2.40
2023-09-18T12:43:02.683Z,2.47
2023-09-18T12:45:31.353Z,2.65
2023-09-18T12:48:00.701Z,3.17
2023-09-18T12:50:29.065Z,3.63
2023-09-18T12:53:16.363Z,3.40
2023-09-18T12:55:44.329Z,3.33
2023-09-18T12:58:14.717Z,3.00
2023-09-18T13:00:50.914Z,2.60
2023-09-18T13:03:19.522Z,3.10
2023-09-18T13:05:48.335Z,2.88
2023-09-18T13:08:15.782Z,2.88
2023-09-18T13:10:56.318Z,3.00
2023-09-18T13:13:24.896Z,3.03
2023-09-18T13:15:55.878Z,4.60
2023-09-18T13:18:24.760Z,3.28
2023-09-18T13:20:54.748Z,3.15
2023-09-18T13:23:29.353Z,2.60
2023-09-18T13:26:01.989Z,2.92
2023-09-18T13:31:00.732Z,2.97
2023-09-18T13:33:28.165Z,3.53
2023-09-18T13:35:56.997Z,3.28
2023-09-18T13:38:27.192Z,3.40
2023-09-18T13:40:58.192Z,4.00
2023-09-18T13:43:25.714Z,3.10
2023-09-18T13:45:52.938Z,3.55
2023-09-18T13:48:20.486Z,3.05
2023-09-18T13:50:53.105Z,3.30
2023-09-18T13:55:47.409Z,3.00
2023-09-18T13:58:14.780Z,3.05
2023-09-18T14:00:44.604Z,3.30
2023-09-18T14:03:16.320Z,2.90
2023-09-18T14:05:43.696Z,3.13
2023-09-18T14:08:11.022Z,3.03
2023-09-18T14:10:40.812Z,3.05
2023-09-18T14:13:08.641Z,2.60
2023-09-18T14:15:35.920Z,3.40
2023-09-18T14:18:04.592Z,2.70
2023-09-18T14:20:31.919Z,3.28
2023-09-18T14:22:59.154Z,2.70
2023-09-18T14:25:26.454Z,2.70
2023-09-18T14:27:53.834Z,2.85
2023-09-18T14:30:21.343Z,3.10
2023-09-18T14:32:49.357Z,3.45
2023-09-18T14:35:16.709Z,3.22
2023-09-18T14:37:43.954Z,2.40
2023-09-18T14:40:13.249Z,2.70
2023-09-18T14:42:41.022Z,2.90
2023-09-18T14:45:09.944Z,2.50
2023-09-18T14:47:37.933Z,2.47
2023-09-18T14:50:06.870Z,2.85
2023-09-18T14:52:34.115Z,2.80
2023-09-18T14:55:02.758Z,3.13
2023-09-18T14:57:30.129Z,4.30
2023-09-18T14:59:57.347Z,2.85
2023-09-18T15:02:30.072Z,2.90
2023-09-18T15:04:57.397Z,2.78
2023-09-18T15:07:24.722Z,2.83
2023-09-18T15:09:51.981Z,2.35
2023-09-18T15:12:19.198Z,3.22
2023-09-18T15:14:46.528Z,2.40
2023-09-18T15:17:14.260Z,2.25
2023-09-18T15:19:44.554Z,3.35
2023-09-18T15:22:11.834Z,2.20
2023-09-18T15:24:39.105Z,2.85
2023-09-18T15:27:06.764Z,2.50
2023-09-18T15:29:35.746Z,3.33
2023-09-18T15:32:06.471Z,3.00
2023-09-18T15:34:34.491Z,2.67
2023-09-18T15:37:05.036Z,2.53
2023-09-18T15:39:35.338Z,2.85
2023-09-18T15:42:02.557Z,2.42
2023-09-18T15:44:29.791Z,2.50
2023-09-18T15:46:57.024Z,3.42
2023-09-18T15:49:24.262Z,3.13
2023-09-18T15:51:51.454Z,3.28
2023-09-18T15:54:19.091Z,2.78
2023-09-18T15:56:46.611Z,2.35
2023-09-18T15:59:13.804Z,2.42
2023-09-18T16:01:41.246Z,4.45
2023-09-18T16:04:08.983Z,2.33
2023-09-18T16:06:36.771Z,2.63
2023-09-18T16:09:07.287Z,2.50
2023-09-18T16:11:34.636Z,2.70
2023-09-18T16:14:01.901Z,2.45
2023-09-18T16:16:29.530Z,3.60
2023-09-18T16:18:58.402Z,2.22
2023-09-18T16:21:25.883Z,2.40
2023-09-18T16:23:54.074Z,2.28
2023-09-18T16:26:22.126Z,3.50
2023-09-18T16:28:49.352Z,5.10
2023-09-18T16:31:16.594Z,4.03
2023-09-18T16:33:44.426Z,2.72
2023-09-18T16:36:11.693Z,2.35
2023-09-18T16:38:42.701Z,2.60
2023-09-18T16:41:11.298Z,2.40
2023-09-18T16:43:39.246Z,3.53
2023-09-18T16:46:07.032Z,4.13
2023-09-18T16:48:35.557Z,3.15
2023-09-18T16:51:22.467Z,2.20
2023-09-18T16:53:50.068Z,2.15
2023-09-18T16:56:17.897Z,2.50
2023-09-18T16:58:47.358Z,2.55
2023-09-18T17:01:14.909Z,2.25
2023-09-18T17:03:43.551Z,2.22
2023-09-18T17:06:12.110Z,2.45
2023-09-18T17:08:40.673Z,2.90
2023-09-18T17:11:08.418Z,2.13
2023-09-18T17:13:35.614Z,2.20
2023-09-18T17:16:04.200Z,2.40
2023-09-18T17:18:31.873Z,3.17
2023-09-18T17:20:59.176Z,2.70
2023-09-18T17:23:26.863Z,2.67
2023-09-18T17:25:54.057Z,2.63
2023-09-18T17:28:21.232Z,2.60
2023-09-18T17:30:51.560Z,3.47
2023-09-18T17:33:19.271Z,2.78
2023-09-18T17:35:48.362Z,2.78
2023-09-18T17:38:15.767Z,2.80
2023-09-18T17:40:43.075Z,2.42
2023-09-18T17:43:10.278Z,2.83
2023-09-18T17:45:37.577Z,3.47
2023-09-18T17:48:07.960Z,4.53
2023-09-18T17:50:35.818Z,3.17
2023-09-18T17:53:03.241Z,2.30
2023-09-18T17:55:30.579Z,2.40
2023-09-18T17:57:59.247Z,2.60
2023-09-18T18:00:26.649Z,2.55
2023-09-18T18:03:07.247Z,5.82
2023-09-18T18:05:52.961Z,3.58
2023-09-18T18:08:20.844Z,2.58
2023-09-18T18:10:48.394Z,2.38
2023-09-18T18:13:16.430Z,2.47
2023-09-18T18:15:44.311Z,3.15
2023-09-18T18:18:13.828Z,2.67
2023-09-18T18:20:46.026Z,3.00
2023-09-18T18:23:13.958Z,2.60
2023-09-18T18:25:41.593Z,3.50
2023-09-18T18:28:10.173Z,2.70
2023-09-18T18:30:37.421Z,2.83
2023-09-18T18:33:05.792Z,3.05
2023-09-18T18:35:33.129Z,2.80
2023-09-18T18:38:00.601Z,2.85
2023-09-18T18:40:28.557Z,3.13
2023-09-18T18:42:55.754Z,2.78
2023-09-18T18:45:27.064Z,2.70
2023-09-18T18:47:54.934Z,3.42
2023-09-18T18:50:22.662Z,3.05
2023-09-18T18:52:50.201Z,2.80
2023-09-18T18:55:17.942Z,2.85
2023-09-18T18:57:45.187Z,3.17
2023-09-18T19:00:13.084Z,3.40
2023-09-18T19:02:41.334Z,3.13
2023-09-18T19:05:10.816Z,3.53
2023-09-18T19:07:38.258Z,2.95
2023-09-18T19:10:06.382Z,3.08
2023-09-18T19:12:41.459Z,2.70
2023-09-18T19:15:10.831Z,2.80
2023-09-18T19:17:38.195Z,3.20
2023-09-18T19:20:06.538Z,2.75
2023-09-18T19:22:35.468Z,2.97
2023-09-18T19:25:05.563Z,2.60
2023-09-18T19:27:37.877Z,2.75
2023-09-18T19:30:10.237Z,3.00
2023-09-18T19:32:40.174Z,2.90
2023-09-18T19:35:08.528Z,2.80
2023-09-18T19:37:36.001Z,2.65
2023-09-18T19:40:03.833Z,3.30
2023-09-18T19:42:31.263Z,2.88
2023-09-18T19:44:58.489Z,3.30
2023-09-18T19:47:25.707Z,2.88
2023-09-18T19:49:52.901Z,3.22
2023-09-18T19:52:20.125Z,3.50
2023-09-18T19:54:47.431Z,2.90
2023-09-18T19:57:15.203Z,3.22
2023-09-18T19:59:42.456Z,3.00
2023-09-18T20:02:10.144Z,3.38
2023-09-18T20:04:37.329Z,4.00
2023-09-18T20:07:07.421Z,2.72
2023-09-18T20:09:34.712Z,3.30
2023-09-18T20:12:01.926Z,2.80
2023-09-18T20:14:32.208Z,2.72
2023-09-18T20:17:00.597Z,2.67
2023-09-18T20:19:28.144Z,3.00
2023-09-18T20:21:58.406Z,2.80
2023-09-18T20:24:25.884Z,3.13
2023-09-18T20:26:53.086Z,3.00
2023-09-18T20:29:20.333Z,2.53
2023-09-18T20:31:47.653Z,2.63
2023-09-18T20:34:14.872Z,2.78
2023-09-18T20:36:43.105Z,2.67
2023-09-18T20:39:10.651Z,3.25
2023-09-18T20:41:38.035Z,2.90
2023-09-18T20:44:05.676Z,2.70
2023-09-18T20:46:33.115Z,2.85
2023-09-18T20:51:32.836Z,2.90
2023-09-18T20:54:01.626Z,2.95
2023-09-18T20:56:29.875Z,2.50
2023-09-18T20:59:04.569Z,2.97
2023-09-18T21:01:32.527Z,2.80
2023-09-18T21:03:59.843Z,3.08
2023-09-18T21:06:27.806Z,2.67
2023-09-18T21:08:55.209Z,3.10
2023-09-18T21:11:36.678Z,2.60
2023-09-18T21:14:05.464Z,3.15
2023-09-18T21:16:32.861Z,3.00
2023-09-18T21:19:00.281Z,2.95
2023-09-18T21:21:27.822Z,2.65
2023-09-18T21:23:55.256Z,3.10
2023-09-18T21:26:22.839Z,3.05
2023-09-18T21:28:50.788Z,2.67
2023-09-18T21:31:21.889Z,2.83
2023-09-18T21:33:53.066Z,2.80
2023-09-18T21:36:24.813Z,3.05
2023-09-18T21:38:53.009Z,2.73
2023-09-18T21:41:21.587Z,3.13
2023-09-18T21:43:49.074Z,2.90
2023-09-18T21:46:16.701Z,3.10
2023-09-18T21:48:45.155Z,2.88
2023-09-18T21:51:17.388Z,2.85
2023-09-18T21:53:48.154Z,1.77
2023-09-18T21:56:15.644Z,1.50
2023-09-18T21:58:42.915Z,1.33
2023-09-18T22:01:10.304Z,1.25
2023-09-18T22:03:41.013Z,1.20
2023-09-18T22:06:11.920Z,1.00
2023-09-18T22:08:39.754Z,1.10
2023-09-18T22:11:08.101Z,1.40
2023-09-18T22:13:38.768Z,1.40
2023-09-18T22:16:06.575Z,1.50
2023-09-18T22:18:34.170Z,1.20
2023-09-18T22:23:37.545Z,1.20
2023-09-18T22:26:04.851Z,1.10
2023-09-18T22:28:32.149Z,1.10
2023-09-18T22:30:59.412Z,1.15
2023-09-18T22:33:28.159Z,1.45
2023-09-18T22:35:56.127Z,1.33
2023-09-18T22:39:05.045Z,1.30
2023-09-18T22:41:32.414Z,1.23
2023-09-18T22:44:56.122Z,1.60
2023-09-18T22:48:20.834Z,1.17
2023-09-18T22:51:44.895Z,1.30
2023-09-18T22:56:39.175Z,1.33
2023-09-18T22:59:06.680Z,1.00
2023-09-18T23:01:34.123Z,1.10
2023-09-18T23:04:01.671Z,1.17
2023-09-18T23:06:29.278Z,1.40
2023-09-18T23:08:56.601Z,1.38
2023-09-18T23:11:25.153Z,1.45
2023-09-18T23:13:53.001Z,1.48
2023-09-18T23:16:26.186Z,1.13
2023-09-18T23:18:53.575Z,1.20
2023-09-18T23:21:21.859Z,1.42
2023-09-18T23:23:49.236Z,1.15
2023-09-18T23:26:16.676Z,1.30
2023-09-18T23:28:46.209Z,1.10
2023-09-18T23:31:14.962Z,1.58
2023-09-18T23:33:46.372Z,1.17
2023-09-18T23:36:13.674Z,1.20
2023-09-18T23:38:42.054Z,1.20
2023-09-18T23:41:10.069Z,1.08
2023-09-18T23:43:37.652Z,1.20
2023-09-18T23:46:09.191Z,1.27
2023-09-18T23:48:36.753Z,1.42
2023-09-18T23:51:05.874Z,1.20
2023-09-18T23:53:34.019Z,1.15
2023-09-18T23:56:04.024Z,1.30
2023-09-18T23:58:31.328Z,1.42
